sensor_id;sensor_type;location;lat;lon;timestamp;pressure;altitude;pressure_sealevel;temperature;humidity
55592;BME280;41454;53.396;-1.510;2022-12-10T00:01:34;99288.40;;;-2.97;100.00
55592;BME280;41454;53.396;-1.510;2022-12-10T00:04:02;99291.28;;;-2.91;100.00
55592;BME280;41454;53.396;-1.510;2022-12-10T00:06:32;99290.17;;;-2.97;100.00
55592;BME280;41454;53.396;-1.510;2022-12-10T00:09:00;99293.07;;;-3.41;100.00
55592;BME280;41454;53.396;-1.510;2022-12-10T00:11:28;99293.15;;;-3.02;100.00
55592;BME280;41454;53.396;-1.510;2022-12-10T00:13:57;99296.39;;;-3.07;100.00
55592;BME280;41454;53.396;-1.510;2022-12-10T00:16:26;99292.52;;;-3.06;100.00
55592;BME280;41454;53.396;-1.510;2022-12-10T00:18:54;99295.37;;;-2.98;100.00
55592;BME280;41454;53.396;-1.510;2022-12-10T00:21:23;99296.56;;;-2.93;100.00
55592;BME280;41454;53.396;-1.510;2022-12-10T00:23:51;99294.40;;;-2.63;100.00
55592;BME280;41454;53.396;-1.510;2022-12-10T00:26:20;99292.83;;;-2.87;100.00
55592;BME280;41454;53.396;-1.510;2022-12-10T00:28:48;99292.90;;;-2.69;100.00
55592;BME280;41454;53.396;-1.510;2022-12-10T00:31:17;99285.12;;;-2.61;100.00
55592;BME280;41454;53.396;-1.510;2022-12-10T00:33:46;99286.77;;;-2.53;100.00
55592;BME280;41454;53.396;-1.510;2022-12-10T00:36:15;99284.65;;;-2.68;100.00
55592;BME280;41454;53.396;-1.510;2022-12-10T00:38:45;99288.22;;;-2.46;100.00
55592;BME280;41454;53.396;-1.510;2022-12-10T00:41:13;99287.27;;;-2.82;100.00
55592;BME280;41454;53.396;-1.510;2022-12-10T00:43:42;99284.42;;;-2.92;100.00
55592;BME280;41454;53.396;-1.510;2022-12-10T00:46:09;99279.14;;;-2.73;100.00
55592;BME280;41454;53.396;-1.510;2022-12-10T00:48:36;99278.40;;;-2.90;100.00
55592;BME280;41454;53.396;-1.510;2022-12-10T00:51:05;99278.50;;;-2.66;100.00
55592;BME280;41454;53.396;-1.510;2022-12-10T00:53:34;99285.72;;;-2.38;100.00
55592;BME280;41454;53.396;-1.510;2022-12-10T00:56:02;99284.31;;;-2.42;100.00
55592;BME280;41454;53.396;-1.510;2022-12-10T00:58:31;99279.71;;;-2.59;100.00
55592;BME280;41454;53.396;-1.510;2022-12-10T01:01:07;99274.34;;;-2.68;100.00
55592;BME280;41454;53.396;-1.510;2022-12-10T01:03:35;99274.87;;;-2.71;100.00
55592;BME280;41454;53.396;-1.510;2022-12-10T01:06:13;99275.99;;;-2.42;100.00
55592;BME280;41454;53.396;-1.510;2022-12-10T01:08:42;99273.63;;;-2.61;100.00
55592;BME280;41454;53.396;-1.510;2022-12-10T01:11:10;99269.97;;;-2.77;100.00
55592;BME280;41454;53.396;-1.510;2022-12-10T01:13:38;99271.39;;;-2.91;100.00
55592;BME280;41454;53.396;-1.510;2022-12-10T01:16:08;99283.80;;;-2.80;100.00
55592;BME280;41454;53.396;-1.510;2022-12-10T01:18:36;99283.21;;;-2.59;100.00
55592;BME280;41454;53.396;-1.510;2022-12-10T01:21:06;99279.95;;;-2.53;100.00
55592;BME280;41454;53.396;-1.510;2022-12-10T01:23:33;99282.53;;;-2.86;100.00
55592;BME280;41454;53.396;-1.510;2022-12-10T01:26:02;99280.10;;;-2.80;100.00
55592;BME280;41454;53.396;-1.510;2022-12-10T01:28:32;99287.40;;;-2.51;100.00
55592;BME280;41454;53.396;-1.510;2022-12-10T01:31:01;99286.21;;;-2.15;100.00
55592;BME280;41454;53.396;-1.510;2022-12-10T01:33:29;99288.41;;;-2.17;100.00
55592;BME280;41454;53.396;-1.510;2022-12-10T01:35:56;99290.00;;;-1.91;100.00
55592;BME280;41454;53.396;-1.510;2022-12-10T01:38:23;99290.41;;;-2.04;100.00
55592;BME280;41454;53.396;-1.510;2022-12-10T01:40:51;99292.38;;;-2.20;100.00
55592;BME280;41454;53.396;-1.510;2022-12-10T01:43:18;99287.57;;;-2.47;100.00
55592;BME280;41454;53.396;-1.510;2022-12-10T01:45:46;99292.37;;;-2.21;100.00
55592;BME280;41454;53.396;-1.510;2022-12-10T01:48:13;99291.68;;;-2.40;100.00
55592;BME280;41454;53.396;-1.510;2022-12-10T01:50:40;99292.59;;;-2.25;100.00
55592;BME280;41454;53.396;-1.510;2022-12-10T01:53:07;99289.68;;;-2.57;100.00
55592;BME280;41454;53.396;-1.510;2022-12-10T01:55:39;99292.41;;;-2.20;100.00
55592;BME280;41454;53.396;-1.510;2022-12-10T01:58:07;99291.57;;;-1.94;100.00
55592;BME280;41454;53.396;-1.510;2022-12-10T02:00:38;99290.28;;;-1.94;100.00
55592;BME280;41454;53.396;-1.510;2022-12-10T02:03:14;99291.10;;;-1.92;100.00
55592;BME280;41454;53.396;-1.510;2022-12-10T02:05:49;99293.57;;;-2.12;100.00
55592;BME280;41454;53.396;-1.510;2022-12-10T02:08:21;99293.87;;;-1.81;100.00
55592;BME280;41454;53.396;-1.510;2022-12-10T02:10:59;99290.92;;;-1.59;100.00
55592;BME280;41454;53.396;-1.510;2022-12-10T02:13:33;99286.81;;;-1.67;100.00
55592;BME280;41454;53.396;-1.510;2022-12-10T02:16:09;99289.30;;;-1.08;100.00
55592;BME280;41454;53.396;-1.510;2022-12-10T02:18:42;99288.23;;;-0.39;100.00
55592;BME280;41454;53.396;-1.510;2022-12-10T02:21:16;99286.34;;;-0.68;100.00
55592;BME280;41454;53.396;-1.510;2022-12-10T02:23:46;99289.58;;;-0.57;100.00
55592;BME280;41454;53.396;-1.510;2022-12-10T02:26:22;99284.31;;;-0.38;100.00
55592;BME280;41454;53.396;-1.510;2022-12-10T02:29:01;99284.47;;;0.16;100.00
55592;BME280;41454;53.396;-1.510;2022-12-10T02:31:33;99292.41;;;-0.56;100.00
55592;BME280;41454;53.396;-1.510;2022-12-10T02:34:04;99302.10;;;-0.60;100.00
55592;BME280;41454;53.396;-1.510;2022-12-10T02:36:36;99303.37;;;-1.03;100.00
55592;BME280;41454;53.396;-1.510;2022-12-10T02:39:08;99296.54;;;-1.38;100.00
55592;BME280;41454;53.396;-1.510;2022-12-10T02:41:39;99300.24;;;-1.75;100.00
55592;BME280;41454;53.396;-1.510;2022-12-10T02:44:10;99291.75;;;-1.70;100.00
55592;BME280;41454;53.396;-1.510;2022-12-10T02:46:41;99290.54;;;-1.69;100.00
55592;BME280;41454;53.396;-1.510;2022-12-10T02:49:11;99286.88;;;-1.44;100.00
55592;BME280;41454;53.396;-1.510;2022-12-10T02:51:40;99289.99;;;-1.60;100.00
55592;BME280;41454;53.396;-1.510;2022-12-10T02:54:35;99294.67;;;-1.54;100.00
55592;BME280;41454;53.396;-1.510;2022-12-10T02:57:15;99294.52;;;-1.15;100.00
55592;BME280;41454;53.396;-1.510;2022-12-10T02:59:56;99296.97;;;-1.05;100.00
55592;BME280;41454;53.396;-1.510;2022-12-10T03:02:31;99292.48;;;-0.57;100.00
55592;BME280;41454;53.396;-1.510;2022-12-10T03:05:03;99288.65;;;-0.27;100.00
55592;BME280;41454;53.396;-1.510;2022-12-10T03:07:38;99289.67;;;0.45;100.00
55592;BME280;41454;53.396;-1.510;2022-12-10T03:10:09;99289.16;;;0.40;100.00
55592;BME280;41454;53.396;-1.510;2022-12-10T03:12:42;99287.37;;;0.75;100.00
55592;BME280;41454;53.396;-1.510;2022-12-10T03:15:13;99291.05;;;0.64;100.00
55592;BME280;41454;53.396;-1.510;2022-12-10T03:17:42;99288.28;;;0.11;100.00
55592;BME280;41454;53.396;-1.510;2022-12-10T03:20:14;99288.80;;;-0.21;100.00
55592;BME280;41454;53.396;-1.510;2022-12-10T03:22:44;99287.20;;;0.33;100.00
55592;BME280;41454;53.396;-1.510;2022-12-10T03:25:15;99291.20;;;0.15;100.00
55592;BME280;41454;53.396;-1.510;2022-12-10T03:27:46;99288.65;;;-0.38;100.00
55592;BME280;41454;53.396;-1.510;2022-12-10T03:30:14;99290.78;;;-0.84;100.00
55592;BME280;41454;53.396;-1.510;2022-12-10T03:32:43;99292.04;;;-1.08;100.00
55592;BME280;41454;53.396;-1.510;2022-12-10T03:35:13;99289.23;;;-1.27;100.00
55592;BME280;41454;53.396;-1.510;2022-12-10T03:37:41;99295.82;;;-2.05;100.00
55592;BME280;41454;53.396;-1.510;2022-12-10T03:40:10;99293.80;;;-1.82;100.00
55592;BME280;41454;53.396;-1.510;2022-12-10T03:42:38;99291.43;;;-2.04;100.00
55592;BME280;41454;53.396;-1.510;2022-12-10T03:45:06;99291.15;;;-2.08;100.00
55592;BME280;41454;53.396;-1.510;2022-12-10T03:47:34;99286.88;;;-2.10;100.00
55592;BME280;41454;53.396;-1.510;2022-12-10T03:50:01;99285.33;;;-1.83;100.00
55592;BME280;41454;53.396;-1.510;2022-12-10T03:52:29;99282.82;;;-1.71;100.00
55592;BME280;41454;53.396;-1.510;2022-12-10T03:54:56;99280.11;;;-1.63;100.00
55592;BME280;41454;53.396;-1.510;2022-12-10T03:57:24;99275.75;;;-1.86;100.00
55592;BME280;41454;53.396;-1.510;2022-12-10T03:59:51;99269.81;;;-1.69;100.00
55592;BME280;41454;53.396;-1.510;2022-12-10T04:02:18;99264.20;;;-1.79;100.00
55592;BME280;41454;53.396;-1.510;2022-12-10T04:04:46;99265.46;;;-1.98;100.00
55592;BME280;41454;53.396;-1.510;2022-12-10T04:07:13;99266.50;;;-2.28;100.00
55592;BME280;41454;53.396;-1.510;2022-12-10T04:09:40;99265.81;;;-1.99;100.00
55592;BME280;41454;53.396;-1.510;2022-12-10T04:12:07;99270.43;;;-2.17;100.00
55592;BME280;41454;53.396;-1.510;2022-12-10T04:14:34;99270.42;;;-2.04;100.00
55592;BME280;41454;53.396;-1.510;2022-12-10T04:17:02;99269.04;;;-1.95;100.00
55592;BME280;41454;53.396;-1.510;2022-12-10T04:19:29;99269.26;;;-1.78;100.00
55592;BME280;41454;53.396;-1.510;2022-12-10T04:21:56;99270.71;;;-1.49;100.00
55592;BME280;41454;53.396;-1.510;2022-12-10T04:24:25;99271.54;;;-1.53;100.00
55592;BME280;41454;53.396;-1.510;2022-12-10T04:26:53;99274.87;;;-1.20;100.00
55592;BME280;41454;53.396;-1.510;2022-12-10T04:29:21;99268.16;;;-0.99;100.00
55592;BME280;41454;53.396;-1.510;2022-12-10T04:31:48;99269.51;;;-1.36;100.00
55592;BME280;41454;53.396;-1.510;2022-12-10T04:34:16;99272.54;;;-1.48;100.00
55592;BME280;41454;53.396;-1.510;2022-12-10T04:36:43;99264.83;;;-1.55;100.00
55592;BME280;41454;53.396;-1.510;2022-12-10T04:39:10;99265.77;;;-1.50;100.00
55592;BME280;41454;53.396;-1.510;2022-12-10T04:41:39;99260.38;;;-1.25;100.00
55592;BME280;41454;53.396;-1.510;2022-12-10T04:44:07;99264.64;;;-1.50;100.00
55592;BME280;41454;53.396;-1.510;2022-12-10T04:46:34;99261.76;;;-1.15;100.00
55592;BME280;41454;53.396;-1.510;2022-12-10T04:49:01;99257.23;;;-1.02;100.00
55592;BME280;41454;53.396;-1.510;2022-12-10T04:51:29;99254.33;;;-1.03;100.00
55592;BME280;41454;53.396;-1.510;2022-12-10T04:53:59;99256.07;;;-0.91;100.00
55592;BME280;41454;53.396;-1.510;2022-12-10T04:56:26;99255.28;;;-1.13;100.00
55592;BME280;41454;53.396;-1.510;2022-12-10T04:58:56;99252.00;;;-0.88;100.00
55592;BME280;41454;53.396;-1.510;2022-12-10T05:01:24;99252.51;;;-0.68;100.00
55592;BME280;41454;53.396;-1.510;2022-12-10T05:03:51;99248.65;;;-1.17;100.00
55592;BME280;41454;53.396;-1.510;2022-12-10T05:06:20;99251.03;;;-1.55;100.00
55592;BME280;41454;53.396;-1.510;2022-12-10T05:08:47;99243.78;;;-1.31;100.00
55592;BME280;41454;53.396;-1.510;2022-12-10T05:11:16;99244.07;;;-1.80;100.00
55592;BME280;41454;53.396;-1.510;2022-12-10T05:13:44;99242.57;;;-1.15;100.00
55592;BME280;41454;53.396;-1.510;2022-12-10T05:16:16;99241.12;;;-0.81;100.00
55592;BME280;41454;53.396;-1.510;2022-12-10T05:18:44;99243.00;;;-1.12;100.00
55592;BME280;41454;53.396;-1.510;2022-12-10T05:21:13;99246.74;;;-0.84;100.00
55592;BME280;41454;53.396;-1.510;2022-12-10T05:23:42;99245.41;;;-1.04;100.00
55592;BME280;41454;53.396;-1.510;2022-12-10T05:26:12;99247.71;;;-1.34;100.00
55592;BME280;41454;53.396;-1.510;2022-12-10T05:28:41;99250.61;;;-0.85;100.00
55592;BME280;41454;53.396;-1.510;2022-12-10T05:31:11;99248.50;;;-1.31;100.00
55592;BME280;41454;53.396;-1.510;2022-12-10T05:33:39;99248.66;;;-1.40;100.00
55592;BME280;41454;53.396;-1.510;2022-12-10T05:36:06;99249.09;;;-1.43;100.00
55592;BME280;41454;53.396;-1.510;2022-12-10T05:38:34;99241.12;;;-1.56;100.00
55592;BME280;41454;53.396;-1.510;2022-12-10T05:41:02;99245.35;;;-1.79;100.00
55592;BME280;41454;53.396;-1.510;2022-12-10T05:43:31;99248.08;;;-1.77;100.00
55592;BME280;41454;53.396;-1.510;2022-12-10T05:46:01;99238.19;;;-1.85;100.00
55592;BME280;41454;53.396;-1.510;2022-12-10T05:48:28;99238.03;;;-1.80;100.00
55592;BME280;41454;53.396;-1.510;2022-12-10T05:50:55;99241.24;;;-1.96;100.00
55592;BME280;41454;53.396;-1.510;2022-12-10T05:53:22;99240.99;;;-1.78;100.00
55592;BME280;41454;53.396;-1.510;2022-12-10T05:55:56;99243.52;;;-1.91;100.00
55592;BME280;41454;53.396;-1.510;2022-12-10T05:58:27;99244.96;;;-2.16;100.00
55592;BME280;41454;53.396;-1.510;2022-12-10T06:00:55;99246.52;;;-1.96;100.00
55592;BME280;41454;53.396;-1.510;2022-12-10T06:03:22;99245.69;;;-1.76;100.00
55592;BME280;41454;53.396;-1.510;2022-12-10T06:05:48;99243.63;;;-1.69;100.00
55592;BME280;41454;53.396;-1.510;2022-12-10T06:08:15;99240.97;;;-1.70;100.00
55592;BME280;41454;53.396;-1.510;2022-12-10T06:10:43;99251.70;;;-2.04;100.00
55592;BME280;41454;53.396;-1.510;2022-12-10T06:13:10;99245.61;;;-1.97;100.00
55592;BME280;41454;53.396;-1.510;2022-12-10T06:15:39;99240.97;;;-1.37;100.00
55592;BME280;41454;53.396;-1.510;2022-12-10T06:18:07;99238.77;;;-1.96;100.00
55592;BME280;41454;53.396;-1.510;2022-12-10T06:20:41;99236.59;;;-1.88;100.00
55592;BME280;41454;53.396;-1.510;2022-12-10T06:23:07;99239.09;;;-1.75;100.00
55592;BME280;41454;53.396;-1.510;2022-12-10T06:25:38;99241.86;;;-1.25;100.00
55592;BME280;41454;53.396;-1.510;2022-12-10T06:28:07;99240.13;;;-1.29;100.00
55592;BME280;41454;53.396;-1.510;2022-12-10T06:30:35;99238.93;;;-1.54;100.00
55592;BME280;41454;53.396;-1.510;2022-12-10T06:33:02;99235.06;;;-1.57;100.00
55592;BME280;41454;53.396;-1.510;2022-12-10T06:35:29;99237.66;;;-1.52;100.00
55592;BME280;41454;53.396;-1.510;2022-12-10T06:37:57;99236.86;;;-1.59;100.00
55592;BME280;41454;53.396;-1.510;2022-12-10T06:40:24;99238.42;;;-1.81;100.00
55592;BME280;41454;53.396;-1.510;2022-12-10T06:42:52;99238.51;;;-1.74;100.00
55592;BME280;41454;53.396;-1.510;2022-12-10T06:45:19;99248.61;;;-1.80;100.00
55592;BME280;41454;53.396;-1.510;2022-12-10T06:47:46;99241.67;;;-1.47;100.00
55592;BME280;41454;53.396;-1.510;2022-12-10T06:50:13;99241.93;;;-1.50;100.00
55592;BME280;41454;53.396;-1.510;2022-12-10T06:52:41;99244.10;;;-1.42;100.00
55592;BME280;41454;53.396;-1.510;2022-12-10T06:55:08;99242.06;;;-1.58;100.00
55592;BME280;41454;53.396;-1.510;2022-12-10T06:57:36;99241.82;;;-1.28;100.00
55592;BME280;41454;53.396;-1.510;2022-12-10T07:00:03;99247.64;;;-1.38;100.00
55592;BME280;41454;53.396;-1.510;2022-12-10T07:02:30;99247.29;;;-1.63;100.00
55592;BME280;41454;53.396;-1.510;2022-12-10T07:04:57;99248.80;;;-1.41;100.00
55592;BME280;41454;53.396;-1.510;2022-12-10T07:07:24;99250.35;;;-1.71;100.00
55592;BME280;41454;53.396;-1.510;2022-12-10T07:09:52;99253.75;;;-1.36;100.00
55592;BME280;41454;53.396;-1.510;2022-12-10T07:12:19;99254.82;;;-1.63;100.00
55592;BME280;41454;53.396;-1.510;2022-12-10T07:14:46;99254.68;;;-1.36;100.00
55592;BME280;41454;53.396;-1.510;2022-12-10T07:17:13;99260.38;;;-1.48;100.00
55592;BME280;41454;53.396;-1.510;2022-12-10T07:19:39;99259.92;;;-0.88;100.00
55592;BME280;41454;53.396;-1.510;2022-12-10T07:22:06;99258.27;;;-0.78;100.00
55592;BME280;41454;53.396;-1.510;2022-12-10T07:24:33;99261.08;;;-0.17;100.00
55592;BME280;41454;53.396;-1.510;2022-12-10T07:27:00;99259.09;;;-0.41;100.00
55592;BME280;41454;53.396;-1.510;2022-12-10T07:29:26;99260.64;;;-0.60;100.00
55592;BME280;41454;53.396;-1.510;2022-12-10T07:31:53;99262.99;;;-0.72;100.00
55592;BME280;41454;53.396;-1.510;2022-12-10T07:34:20;99263.17;;;-0.48;100.00
55592;BME280;41454;53.396;-1.510;2022-12-10T07:36:47;99267.48;;;-1.12;100.00
55592;BME280;41454;53.396;-1.510;2022-12-10T07:39:15;99267.31;;;-1.14;100.00
55592;BME280;41454;53.396;-1.510;2022-12-10T07:41:43;99264.18;;;-0.72;100.00
55592;BME280;41454;53.396;-1.510;2022-12-10T07:44:11;99265.42;;;-0.71;100.00
55592;BME280;41454;53.396;-1.510;2022-12-10T07:46:39;99267.81;;;-0.10;100.00
55592;BME280;41454;53.396;-1.510;2022-12-10T07:49:06;99268.48;;;0.33;100.00
55592;BME280;41454;53.396;-1.510;2022-12-10T07:51:34;99266.64;;;-0.26;100.00
55592;BME280;41454;53.396;-1.510;2022-12-10T07:54:02;99275.05;;;0.80;100.00
55592;BME280;41454;53.396;-1.510;2022-12-10T07:56:29;99272.04;;;-0.04;100.00
55592;BME280;41454;53.396;-1.510;2022-12-10T07:58:56;99271.11;;;0.91;100.00
55592;BME280;41454;53.396;-1.510;2022-12-10T08:01:25;99268.90;;;0.41;100.00
55592;BME280;41454;53.396;-1.510;2022-12-10T08:03:54;99275.49;;;0.93;100.00
55592;BME280;41454;53.396;-1.510;2022-12-10T08:06:23;99272.00;;;0.65;100.00
55592;BME280;41454;53.396;-1.510;2022-12-10T08:08:50;99269.86;;;-0.35;100.00
55592;BME280;41454;53.396;-1.510;2022-12-10T08:11:20;99269.65;;;-0.68;100.00
55592;BME280;41454;53.396;-1.510;2022-12-10T08:13:48;99267.62;;;-0.75;100.00
55592;BME280;41454;53.396;-1.510;2022-12-10T08:16:16;99269.61;;;-1.04;100.00
55592;BME280;41454;53.396;-1.510;2022-12-10T08:18:44;99271.44;;;-0.91;100.00
55592;BME280;41454;53.396;-1.510;2022-12-10T08:21:13;99275.36;;;-0.91;100.00
55592;BME280;41454;53.396;-1.510;2022-12-10T08:23:42;99278.94;;;-1.08;100.00
55592;BME280;41454;53.396;-1.510;2022-12-10T08:26:11;99282.07;;;-0.55;100.00
55592;BME280;41454;53.396;-1.510;2022-12-10T08:28:38;99279.48;;;-0.45;100.00
55592;BME280;41454;53.396;-1.510;2022-12-10T08:31:07;99282.30;;;-0.45;100.00
55592;BME280;41454;53.396;-1.510;2022-12-10T08:33:35;99280.89;;;0.35;100.00
55592;BME280;41454;53.396;-1.510;2022-12-10T08:36:06;99282.80;;;-0.49;100.00
55592;BME280;41454;53.396;-1.510;2022-12-10T08:38:33;99276.62;;;0.09;100.00
55592;BME280;41454;53.396;-1.510;2022-12-10T08:41:06;99277.85;;;0.05;100.00
55592;BME280;41454;53.396;-1.510;2022-12-10T08:43:34;99283.06;;;0.06;100.00
55592;BME280;41454;53.396;-1.510;2022-12-10T08:46:02;99287.24;;;-0.05;100.00
55592;BME280;41454;53.396;-1.510;2022-12-10T08:48:29;99294.47;;;0.01;100.00
55592;BME280;41454;53.396;-1.510;2022-12-10T08:50:57;99297.41;;;0.24;100.00
55592;BME280;41454;53.396;-1.510;2022-12-10T08:53:24;99301.30;;;1.31;100.00
55592;BME280;41454;53.396;-1.510;2022-12-10T08:55:53;99301.63;;;1.65;100.00
55592;BME280;41454;53.396;-1.510;2022-12-10T08:58:20;99307.48;;;1.91;100.00
55592;BME280;41454;53.396;-1.510;2022-12-10T09:00:48;99309.30;;;1.48;100.00
55592;BME280;41454;53.396;-1.510;2022-12-10T09:03:16;99308.06;;;1.94;100.00
55592;BME280;41454;53.396;-1.510;2022-12-10T09:05:43;99304.23;;;2.52;100.00
55592;BME280;41454;53.396;-1.510;2022-12-10T09:08:11;99305.68;;;3.06;100.00
55592;BME280;41454;53.396;-1.510;2022-12-10T09:10:39;99307.03;;;2.87;100.00
55592;BME280;41454;53.396;-1.510;2022-12-10T09:13:06;99307.81;;;2.49;100.00
55592;BME280;41454;53.396;-1.510;2022-12-10T09:15:34;99309.22;;;2.10;100.00
55592;BME280;41454;53.396;-1.510;2022-12-10T09:18:01;99305.73;;;1.87;100.00
55592;BME280;41454;53.396;-1.510;2022-12-10T09:20:29;99306.57;;;1.13;100.00
55592;BME280;41454;53.396;-1.510;2022-12-10T09:22:56;99302.92;;;1.15;100.00
55592;BME280;41454;53.396;-1.510;2022-12-10T09:25:23;99300.55;;;0.87;100.00
55592;BME280;41454;53.396;-1.510;2022-12-10T09:27:50;99298.08;;;0.28;100.00
55592;BME280;41454;53.396;-1.510;2022-12-10T09:30:17;99302.23;;;1.29;100.00
55592;BME280;41454;53.396;-1.510;2022-12-10T09:32:45;99299.75;;;1.20;100.00
55592;BME280;41454;53.396;-1.510;2022-12-10T09:35:12;99298.64;;;1.54;100.00
55592;BME280;41454;53.396;-1.510;2022-12-10T09:37:40;99303.08;;;1.44;100.00
55592;BME280;41454;53.396;-1.510;2022-12-10T09:40:08;99308.47;;;1.70;100.00
55592;BME280;41454;53.396;-1.510;2022-12-10T09:42:45;99310.04;;;1.79;100.00
55592;BME280;41454;53.396;-1.510;2022-12-10T09:45:21;99302.61;;;2.42;100.00
55592;BME280;41454;53.396;-1.510;2022-12-10T09:47:57;99303.71;;;2.77;100.00
55592;BME280;41454;53.396;-1.510;2022-12-10T09:50:32;99310.07;;;2.79;100.00
55592;BME280;41454;53.396;-1.510;2022-12-10T09:53:02;99314.03;;;2.58;100.00
55592;BME280;41454;53.396;-1.510;2022-12-10T09:55:33;99316.33;;;3.52;100.00
55592;BME280;41454;53.396;-1.510;2022-12-10T09:58:02;99313.96;;;2.98;100.00
55592;BME280;41454;53.396;-1.510;2022-12-10T10:00:35;99316.89;;;2.63;100.00
55592;BME280;41454;53.396;-1.510;2022-12-10T10:03:04;99315.95;;;2.80;100.00
55592;BME280;41454;53.396;-1.510;2022-12-10T10:05:35;99317.91;;;2.53;100.00
55592;BME280;41454;53.396;-1.510;2022-12-10T10:08:05;99319.24;;;2.49;100.00
55592;BME280;41454;53.396;-1.510;2022-12-10T10:10:35;99322.18;;;3.32;100.00
55592;BME280;41454;53.396;-1.510;2022-12-10T10:13:15;99322.71;;;2.78;100.00
55592;BME280;41454;53.396;-1.510;2022-12-10T10:15:45;99323.75;;;2.69;100.00
55592;BME280;41454;53.396;-1.510;2022-12-10T10:18:17;99325.79;;;2.30;100.00
55592;BME280;41454;53.396;-1.510;2022-12-10T10:20:47;99330.33;;;2.13;100.00
55592;BME280;41454;53.396;-1.510;2022-12-10T10:23:15;99329.83;;;2.46;100.00
55592;BME280;41454;53.396;-1.510;2022-12-10T10:25:43;99328.10;;;2.41;100.00
55592;BME280;41454;53.396;-1.510;2022-12-10T10:28:14;99327.25;;;2.77;100.00
55592;BME280;41454;53.396;-1.510;2022-12-10T10:30:44;99327.25;;;2.35;100.00
55592;BME280;41454;53.396;-1.510;2022-12-10T10:33:13;99326.05;;;1.76;100.00
55592;BME280;41454;53.396;-1.510;2022-12-10T10:35:44;99324.59;;;1.81;100.00
55592;BME280;41454;53.396;-1.510;2022-12-10T10:38:17;99325.49;;;1.44;100.00
55592;BME280;41454;53.396;-1.510;2022-12-10T10:40:46;99325.95;;;1.61;100.00
55592;BME280;41454;53.396;-1.510;2022-12-10T10:43:20;99326.83;;;1.32;100.00
55592;BME280;41454;53.396;-1.510;2022-12-10T10:45:51;99330.99;;;1.57;100.00
55592;BME280;41454;53.396;-1.510;2022-12-10T10:48:23;99326.56;;;2.76;100.00
55592;BME280;41454;53.396;-1.510;2022-12-10T10:50:53;99328.19;;;2.57;100.00
55592;BME280;41454;53.396;-1.510;2022-12-10T10:53:24;99325.47;;;2.63;100.00
55592;BME280;41454;53.396;-1.510;2022-12-10T10:55:54;99323.57;;;2.50;100.00
55592;BME280;41454;53.396;-1.510;2022-12-10T10:58:23;99326.14;;;2.09;100.00
55592;BME280;41454;53.396;-1.510;2022-12-10T11:01:00;99328.27;;;2.02;100.00
55592;BME280;41454;53.396;-1.510;2022-12-10T11:03:30;99326.70;;;2.19;100.00
55592;BME280;41454;53.396;-1.510;2022-12-10T11:05:58;99328.44;;;2.01;100.00
55592;BME280;41454;53.396;-1.510;2022-12-10T11:08:29;99322.15;;;2.27;100.00
55592;BME280;41454;53.396;-1.510;2022-12-10T11:11:02;99325.01;;;2.00;100.00
55592;BME280;41454;53.396;-1.510;2022-12-10T11:13:33;99325.79;;;1.61;100.00
55592;BME280;41454;53.396;-1.510;2022-12-10T11:16:10;99326.22;;;1.67;100.00
55592;BME280;41454;53.396;-1.510;2022-12-10T11:18:41;99329.61;;;1.97;100.00
55592;BME280;41454;53.396;-1.510;2022-12-10T11:21:17;99332.22;;;2.55;100.00
55592;BME280;41454;53.396;-1.510;2022-12-10T11:23:47;99327.13;;;2.84;100.00
55592;BME280;41454;53.396;-1.510;2022-12-10T11:26:28;99330.10;;;2.71;100.00
55592;BME280;41454;53.396;-1.510;2022-12-10T11:29:06;99331.73;;;2.43;100.00
55592;BME280;41454;53.396;-1.510;2022-12-10T11:31:46;99331.52;;;2.61;100.00
55592;BME280;41454;53.396;-1.510;2022-12-10T11:34:20;99330.30;;;2.83;100.00
55592;BME280;41454;53.396;-1.510;2022-12-10T11:37:00;99330.10;;;2.58;100.00
55592;BME280;41454;53.396;-1.510;2022-12-10T11:39:44;99331.21;;;2.49;100.00
55592;BME280;41454;53.396;-1.510;2022-12-10T11:42:20;99332.90;;;1.32;100.00
55592;BME280;41454;53.396;-1.510;2022-12-10T11:44:56;99337.31;;;1.58;100.00
55592;BME280;41454;53.396;-1.510;2022-12-10T11:47:39;99334.33;;;1.79;100.00
55592;BME280;41454;53.396;-1.510;2022-12-10T11:50:20;99336.75;;;1.75;100.00
55592;BME280;41454;53.396;-1.510;2022-12-10T11:53:12;99330.33;;;1.76;100.00
55592;BME280;41454;53.396;-1.510;2022-12-10T11:55:49;99331.24;;;2.02;100.00
55592;BME280;41454;53.396;-1.510;2022-12-10T11:58:36;99332.69;;;1.68;100.00
55592;BME280;41454;53.396;-1.510;2022-12-10T12:01:15;99329.99;;;1.32;100.00
55592;BME280;41454;53.396;-1.510;2022-12-10T12:03:55;99327.66;;;1.36;100.00
55592;BME280;41454;53.396;-1.510;2022-12-10T12:06:36;99321.33;;;1.29;100.00
55592;BME280;41454;53.396;-1.510;2022-12-10T12:09:13;99318.30;;;1.68;100.00
55592;BME280;41454;53.396;-1.510;2022-12-10T12:11:59;99322.44;;;1.81;100.00
55592;BME280;41454;53.396;-1.510;2022-12-10T12:14:31;99320.28;;;2.23;100.00
55592;BME280;41454;53.396;-1.510;2022-12-10T12:17:13;99328.26;;;1.00;100.00
55592;BME280;41454;53.396;-1.510;2022-12-10T12:19:46;99324.71;;;1.29;100.00
55592;BME280;41454;53.396;-1.510;2022-12-10T12:22:23;99323.27;;;0.71;100.00
55592;BME280;41454;53.396;-1.510;2022-12-10T12:24:53;99324.61;;;0.92;100.00
55592;BME280;41454;53.396;-1.510;2022-12-10T12:27:25;99323.99;;;0.81;100.00
55592;BME280;41454;53.396;-1.510;2022-12-10T12:30:02;99329.07;;;1.39;100.00
55592;BME280;41454;53.396;-1.510;2022-12-10T12:32:36;99328.93;;;1.36;100.00
55592;BME280;41454;53.396;-1.510;2022-12-10T12:35:11;99325.04;;;0.74;100.00
55592;BME280;41454;53.396;-1.510;2022-12-10T12:37:42;99325.46;;;1.00;100.00
55592;BME280;41454;53.396;-1.510;2022-12-10T12:40:16;99331.37;;;1.13;100.00
55592;BME280;41454;53.396;-1.510;2022-12-10T12:42:53;99327.66;;;1.34;100.00
55592;BME280;41454;53.396;-1.510;2022-12-10T12:45:30;99326.73;;;1.66;100.00
55592;BME280;41454;53.396;-1.510;2022-12-10T12:48:05;99323.45;;;1.70;100.00
55592;BME280;41454;53.396;-1.510;2022-12-10T12:50:42;99325.40;;;1.14;100.00
55592;BME280;41454;53.396;-1.510;2022-12-10T12:53:13;99323.25;;;1.61;100.00
55592;BME280;41454;53.396;-1.510;2022-12-10T12:55:47;99323.74;;;1.35;100.00
55592;BME280;41454;53.396;-1.510;2022-12-10T12:58:22;99325.81;;;1.27;100.00